Time;durP1;ratioP1;P1;durP2;ratioP2;P2;SDS_P1;SDS_P2;PMS_P1;PMS_P2;Temp;Humidity;BMP_temperature;BMP_pressure;BME280_temperature;BME280_humidity;BME280_pressure;Samples;Min_cycle;Max_cycle;Signal;HPM_P1;HPM_P2
2022/07/15 00:02:05;;;;;;;7.13;5.13;;;;;;;23.03;66.04;98754.41;5089651;28;20106;-92
2022/07/15 00:04:30;;;;;;;7.20;5.13;;;;;;;22.96;66.10;98746.72;5089386;28;20521;-93
2022/07/15 00:06:56;;;;;;;7.95;5.30;;;;;;;22.94;66.48;98739.69;5089607;28;20062;-93
2022/07/15 00:10:13;;;;;;;6.75;4.78;;;;;;;22.92;66.39;98747.09;5089471;28;20048;-93
2022/07/15 00:12:10;;;;;;;7.05;5.53;;;;;;;22.91;66.46;98745.38;5089151;28;20051;-93
2022/07/15 00:14:36;;;;;;;7.47;5.03;;;;;;;22.85;66.72;98740.41;5090223;28;20036;-93
2022/07/15 00:17:02;;;;;;;5.97;5.07;;;;;;;22.81;67.27;98749.78;5088994;28;20048;-93
2022/07/15 00:19:28;;;;;;;7.03;5.30;;;;;;;22.68;67.32;98725.47;5084865;28;20521;-93
2022/07/15 00:21:54;;;;;;;6.85;5.10;;;;;;;22.65;67.34;98728.44;5090223;28;20044;-93
2022/07/15 00:24:20;;;;;;;5.93;5.10;;;;;;;22.64;67.94;98737.53;5089552;28;20497;-93
2022/07/15 00:26:48;;;;;;;8.40;5.38;;;;;;;22.58;67.97;98738.88;5089207;28;20398;-92
2022/07/15 00:29:13;;;;;;;7.35;5.15;;;;;;;22.56;68.31;98732.72;5076642;28;20575;-93
2022/07/15 00:31:39;;;;;;;9.50;5.50;;;;;;;22.43;68.96;98726.50;5075846;28;20048;-94
2022/07/15 00:34:05;;;;;;;7.05;5.05;;;;;;;22.35;69.17;98730.66;5076479;28;20040;-92
2022/07/15 00:36:31;;;;;;;7.53;4.70;;;;;;;22.21;69.80;98727.25;5074998;28;20041;-93
2022/07/15 00:38:57;;;;;;;5.70;5.05;;;;;;;22.15;69.89;98731.28;5075623;28;20069;-93
2022/07/15 00:41:23;;;;;;;6.72;5.25;;;;;;;22.00;70.28;98716.19;5075074;28;20040;-93
2022/07/15 00:43:50;;;;;;;6.22;5.18;;;;;;;22.04;70.15;98728.50;5072597;28;20090;-94
2022/07/15 00:46:17;;;;;;;8.27;5.35;;;;;;;22.04;70.58;98731.22;5075339;28;20047;-92
2022/07/15 00:48:43;;;;;;;9.15;5.18;;;;;;;21.88;71.18;98712.53;5073993;28;20044;-93
2022/07/15 00:51:09;;;;;;;6.22;5.13;;;;;;;21.90;71.29;98718.69;5074159;28;20052;-94
2022/07/15 00:53:37;;;;;;;7.20;5.55;;;;;;;21.99;71.31;98730.69;5075300;28;20040;-93
2022/07/15 00:56:06;;;;;;;8.43;5.40;;;;;;;21.74;72.85;98716.28;5074969;28;20117;-93
2022/07/15 00:58:36;;;;;;;6.57;5.68;;;;;;;21.65;72.98;98700.72;5075192;28;20084;-92
2022/07/15 01:01:04;;;;;;;7.43;5.90;;;;;;;21.72;73.13;98724.50;5077365;28;20045;-94
2022/07/15 01:03:32;;;;;;;6.68;5.72;;;;;;;21.62;73.37;98723.47;5075133;28;20048;-93
2022/07/15 01:05:58;;;;;;;9.15;5.70;;;;;;;21.58;73.93;98721.94;5074830;28;20146;-95
2022/07/15 01:08:24;;;;;;;8.55;5.82;;;;;;;21.58;74.42;98721.06;5073951;28;20045;-95
2022/07/15 01:10:52;;;;;;;7.35;6.03;;;;;;;21.43;75.63;98699.59;5074831;28;20041;-94
2022/07/15 01:13:19;;;;;;;7.90;5.90;;;;;;;21.52;75.70;98717.00;5074283;28;20510;-95
2022/07/15 01:15:46;;;;;;;7.55;5.70;;;;;;;21.44;75.54;98703.16;5078641;28;20098;-94
2022/07/15 01:18:13;;;;;;;7.22;5.82;;;;;;;21.36;76.11;98700.97;5115426;28;20044;-93
2022/07/15 01:20:41;;;;;;;7.35;5.65;;;;;;;21.28;75.59;98688.00;5114865;28;20028;-92
2022/07/15 01:23:07;;;;;;;8.97;6.03;;;;;;;21.33;75.27;98702.03;5115180;28;20438;-93
2022/07/15 01:25:33;;;;;;;7.38;6.50;;;;;;;21.36;75.43;98714.50;5115640;28;20127;-93
2022/07/15 01:27:59;;;;;;;8.18;6.57;;;;;;;21.23;75.10;98679.38;5118816;28;20036;-93
2022/07/15 01:30:25;;;;;;;6.80;6.10;;;;;;;21.12;75.74;98679.25;5120446;28;20050;-94
2022/07/15 01:32:51;;;;;;;9.20;6.63;;;;;;;21.16;76.00;98694.28;5119813;28;20051;-93
2022/07/15 01:35:18;;;;;;;8.43;6.65;;;;;;;21.11;76.23;98699.16;5116929;28;20057;-94
2022/07/15 01:37:45;;;;;;;9.45;6.07;;;;;;;21.10;76.83;98692.00;5115715;28;20035;-92
2022/07/15 01:40:11;;;;;;;7.95;6.50;;;;;;;20.93;77.30;98685.97;5113833;28;20038;-91
2022/07/15 01:42:37;;;;;;;6.93;6.22;;;;;;;20.93;78.27;98694.09;5114846;28;20115;-94
2022/07/15 01:45:05;;;;;;;7.97;5.90;;;;;;;20.86;78.89;98692.81;5114457;28;20122;-92
2022/07/15 01:47:32;;;;;;;10.60;6.35;;;;;;;20.84;79.49;98689.34;5114850;28;21326;-92
2022/07/15 01:49:58;;;;;;;7.03;6.20;;;;;;;20.84;79.89;98688.47;5115161;28;20048;-92
2022/07/15 01:52:24;;;;;;;9.90;6.68;;;;;;;20.67;80.33;98682.41;5113785;28;20104;-92
2022/07/15 01:54:53;;;;;;;7.25;6.35;;;;;;;20.63;80.97;98688.16;5115106;28;20052;-91
2022/07/15 01:57:18;;;;;;;7.20;6.40;;;;;;;20.63;81.69;98685.44;5117620;28;20489;-92
2022/07/15 01:59:44;;;;;;;7.20;6.50;;;;;;;20.64;81.96;98674.50;5118444;28;20123;-91
2022/07/15 02:02:10;;;;;;;9.23;6.72;;;;;;;20.65;82.31;98692.47;5118528;28;20562;-91
2022/07/15 02:04:36;;;;;;;9.38;6.90;;;;;;;20.58;83.07;98676.78;5114256;28;20063;-92
2022/07/15 02:07:02;;;;;;;8.63;7.35;;;;;;;20.45;84.46;98677.63;5113537;28;20032;-91
2022/07/15 02:09:28;;;;;;;7.45;6.65;;;;;;;20.49;83.77;98684.53;5115473;27;20035;-92
2022/07/15 02:11:55;;;;;;;8.52;6.40;;;;;;;20.47;83.74;98685.59;5113961;28;20131;-92
2022/07/15 02:14:21;;;;;;;9.18;6.75;;;;;;;20.37;83.59;98666.47;5111686;28;20031;-92
2022/07/15 02:16:47;;;;;;;9.38;7.03;;;;;;;20.38;83.38;98661.94;5114989;28;20043;-94
2022/07/15 02:19:13;;;;;;;11.13;7.07;;;;;;;20.43;83.95;98667.91;5114259;28;20550;-93
2022/07/15 02:21:39;;;;;;;7.82;6.18;;;;;;;;;;5114976;28;20039;-94
2022/07/15 02:24:05;;;;;;;10.05;6.57;;;;;;;20.41;83.80;98665.28;5115270;28;20032;-92
2022/07/15 02:26:31;;;;;;;8.27;6.55;;;;;;;20.43;84.74;98673.28;5113899;28;20040;-92
2022/07/15 02:28:59;;;;;;;10.50;7.25;;;;;;;20.39;85.40;98671.78;5111473;28;20099;-94
2022/07/15 02:31:25;;;;;;;9.25;6.65;;;;;;;20.37;85.64;98674.56;5113606;28;20058;-93
2022/07/15 02:33:51;;;;;;;9.05;6.57;;;;;;;20.26;85.88;98664.50;5116236;27;20031;-94
2022/07/15 02:36:16;;;;;;;8.35;6.43;;;;;;;20.25;85.64;98665.47;5113504;28;20036;-93
2022/07/15 02:38:42;;;;;;;7.68;6.10;;;;;;;20.23;86.86;98667.44;5113398;28;20061;-92
2022/07/15 02:41:11;;;;;;;8.52;6.20;;;;;;;20.26;85.92;98672.59;5114593;28;20040;-92
2022/07/15 02:43:37;;;;;;;;;;;;;;;20.22;86.48;98673.78;5115109;28;20063;-92
2022/07/15 02:46:05;;;;;;;8.82;6.50;;;;;;;20.00;86.53;98639.28;5114062;28;20393;-93
2022/07/15 02:48:31;;;;;;;9.27;6.70;;;;;;;20.05;86.75;98656.03;5114062;28;20401;-94
2022/07/15 02:50:57;;;;;;;7.45;6.20;;;;;;;20.09;86.80;98659.38;5113639;28;20104;-93
2022/07/15 02:53:28;;;;;;;9.20;6.80;;;;;;;20.06;86.98;98662.28;5113785;28;20780;-93
2022/07/15 02:55:54;;;;;;;7.60;6.30;;;;;;;20.00;86.49;98657.31;5114709;28;20051;-94
2022/07/15 02:58:20;;;;;;;9.00;6.75;;;;;;;20.01;87.01;98669.84;5114744;28;20493;-94
2022/07/15 03:00:46;;;;;;;8.52;6.43;;;;;;;19.94;87.56;98661.28;5114637;28;20040;-94
2022/07/15 03:03:13;;;;;;;7.85;6.72;;;;;;;19.96;88.49;98680.94;5113486;28;20047;-94
2022/07/15 03:05:39;;;;;;;8.98;6.85;;;;;;;19.96;88.22;98674.69;5113923;28;20089;-94
2022/07/15 03:08:06;;;;;;;8.45;6.13;;;;;;;19.89;88.46;98663.44;5113827;28;20484;-93
2022/07/15 03:10:31;;;;;;;7.40;6.22;;;;;;;19.91;87.83;98677.69;5114145;28;20417;-95
2022/07/15 03:12:57;;;;;;;8.40;6.57;;;;;;;19.97;87.91;98676.41;5112757;28;20057;-94
2022/07/15 03:15:23;;;;;;;10.02;6.32;;;;;;;19.88;87.31;98662.56;5112610;28;20040;-94
2022/07/15 03:17:49;;;;;;;8.45;6.43;;;;;;;19.82;87.36;98651.31;5112456;28;20044;-93
2022/07/15 03:20:16;;;;;;;8.40;6.63;;;;;;;19.90;87.61;98675.94;5112945;28;20035;-92
2022/07/15 03:22:42;;;;;;;7.97;6.68;;;;;;;19.99;87.42;98680.72;5114438;28;20050;-93
2022/07/15 03:25:08;;;;;;;8.80;6.65;;;;;;;19.86;88.13;98674.41;5113033;28;20496;-93
2022/07/15 03:27:35;;;;;;;8.15;6.53;;;;;;;19.72;88.46;98661.84;5115014;28;20036;-92
2022/07/15 03:30:01;;;;;;;9.15;6.60;;;;;;;19.67;88.74;98666.66;5113741;28;20040;-92
2022/07/15 03:32:27;;;;;;;7.78;6.38;;;;;;;19.69;88.62;98675.50;5113000;28;20123;-93
2022/07/15 03:34:53;;;;;;;8.57;7.47;;;;;;;19.70;89.27;98678.13;5112128;28;20461;-93
2022/07/15 03:37:20;;;;;;;8.95;7.10;;;;;;;19.69;89.27;98683.59;5113184;28;20027;-94
2022/07/15 03:39:46;;;;;;;8.30;6.65;;;;;;;19.69;89.69;98683.59;5113638;28;20047;-94
2022/07/15 03:42:11;;;;;;;10.07;6.80;;;;;;;19.60;89.76;98673.41;5113237;28;20447;-94
2022/07/15 03:44:37;;;;;;;11.55;7.10;;;;;;;19.67;89.10;98669.38;5113329;28;20485;-93
2022/07/15 03:47:03;;;;;;;8.40;6.40;;;;;;;19.64;88.97;98667.72;5113405;28;20039;-93
2022/07/15 03:49:29;;;;;;;7.75;6.95;;;;;;;19.73;89.06;98674.38;5112348;28;20036;-93
2022/07/15 03:51:55;;;;;;;9.90;6.88;;;;;;;19.69;88.42;98670.09;5113212;28;20044;-93
2022/07/15 03:54:22;;;;;;;8.07;6.57;;;;;;;19.67;88.21;98670.22;5112498;28;20450;-93
2022/07/15 03:56:49;;;;;;;8.23;6.65;;;;;;;19.66;88.96;98673.03;5112866;28;20126;-93
2022/07/15 03:59:15;;;;;;;9.27;7.05;;;;;;;19.69;88.89;98684.50;5112516;28;20039;-92
2022/07/15 04:01:42;;;;;;;7.82;6.80;;;;;;;19.67;88.97;98672.94;5113586;28;20489;-92
2022/07/15 04:04:08;;;;;;;10.43;6.68;;;;;;;19.60;89.92;98668.03;5116210;28;20101;-93
2022/07/15 04:06:35;;;;;;;7.68;6.90;;;;;;;19.64;90.12;98674.94;5117255;28;20039;-93
2022/07/15 04:09:01;;;;;;;8.75;7.13;;;;;;;19.65;90.45;98676.69;5117564;28;20404;-94
2022/07/15 04:11:29;;;;;;;10.13;6.88;;;;;;;19.57;89.97;98661.00;5116847;28;20046;-93
2022/07/15 04:13:55;;;;;;;7.45;6.72;;;;;;;19.64;89.34;98667.72;5117736;28;20047;-92
2022/07/15 04:16:21;;;;;;;7.10;6.40;;;;;;;19.61;88.76;98664.38;5117509;28;20048;-93
2022/07/15 04:18:51;;;;;;;8.65;6.80;;;;;;;19.53;87.21;98655.91;5117395;28;20036;-93
2022/07/15 04:21:17;;;;;;;10.65;6.72;;;;;;;19.62;86.72;98669.66;5116527;28;20047;-93
2022/07/15 04:23:42;;;;;;;8.40;6.65;;;;;;;19.65;86.46;98663.22;5117285;28;20126;-93
2022/07/15 04:26:09;;;;;;;9.05;7.38;;;;;;;19.67;86.75;98675.63;5116767;28;20089;-94
2022/07/15 04:28:36;;;;;;;7.80;6.63;;;;;;;19.70;87.73;98679.97;5116080;28;20039;-92
2022/07/15 04:31:02;;;;;;;7.75;6.95;;;;;;;19.65;87.50;98674.00;5116594;28;20393;-93
2022/07/15 04:33:28;;;;;;;9.15;7.20;;;;;;;19.70;88.12;98685.38;5115873;28;20036;-94
2022/07/15 04:35:54;;;;;;;8.88;7.00;;;;;;;19.69;87.76;98667.41;5116397;28;20042;-92
2022/07/15 04:38:20;;;;;;;8.95;6.68;;;;;;;19.78;87.95;98674.94;5115816;28;20035;-93
2022/07/15 04:40:46;;;;;;;8.80;6.97;;;;;;;19.77;87.37;98670.50;5116323;28;20043;-93
2022/07/15 04:43:12;;;;;;;9.50;7.10;;;;;;;19.81;87.07;98677.44;5116002;28;20366;-93
2022/07/15 04:45:40;;;;;;;8.55;6.95;;;;;;;19.73;85.84;98663.56;5117296;28;20066;-94
2022/07/15 04:50:45;;;;;;;9.38;7.10;;;;;;;19.83;83.97;98685.44;5117018;28;20043;-92
2022/07/15 04:50:56;;;;;;;9.57;7.25;;;;;;;19.74;81.65;98676.13;5101775;28;20051;-93
2022/07/15 04:53:23;;;;;;;10.32;6.93;;;;;;;19.70;80.73;98663.78;5115854;28;20056;-93
2022/07/15 04:55:49;;;;;;;9.38;7.43;;;;;;;19.87;80.61;98681.56;5116589;28;20078;-93
2022/07/15 04:58:15;;;;;;;10.98;7.25;;;;;;;19.89;80.46;98669.69;5116661;28;20067;-94
2022/07/15 05:00:43;;;;;;;9.18;6.90;;;;;;;20.03;80.43;98670.59;5116562;28;20063;-93
2022/07/15 05:03:09;;;;;;;7.35;6.65;;;;;;;20.23;79.12;98682.75;5117542;28;20039;-92
2022/07/15 05:05:35;;;;;;;9.80;7.05;;;;;;;20.33;78.19;98674.88;5118414;28;20115;-94
2022/07/15 05:08:01;;;;;;;9.55;6.55;;;;;;;20.42;76.98;98668.84;5120311;28;20038;-95
2022/07/15 05:10:27;;;;;;;7.72;6.53;;;;;;;21.05;73.91;98676.13;5120417;28;20062;-95
2022/07/15 05:12:57;;;;;;;8.45;6.35;;;;;;;21.52;70.29;98658.31;5120729;28;20047;-96
2022/07/15 05:15:23;;;;;;;6.72;6.03;;;;;;;22.01;68.38;98656.50;5120207;28;20038;-95
2022/07/15 05:17:53;;;;;;;7.40;6.60;;;;;;;22.32;66.53;98651.47;5118325;28;20093;-93
2022/07/15 05:20:22;;;;;;;6.53;5.80;;;;;;;22.71;65.91;98658.34;5118230;28;20036;-93
2022/07/15 05:22:48;;;;;;;6.97;6.28;;;;;;;23.00;64.33;98659.72;5117470;28;20047;-94
2022/07/15 05:25:15;;;;;;;7.63;5.85;;;;;;;23.32;63.46;98654.44;5116994;28;20047;-95
2022/07/15 05:27:41;;;;;;;7.88;6.50;;;;;;;23.80;61.09;98673.13;5115757;28;20448;-95
2022/07/15 05:30:08;;;;;;;7.78;5.90;;;;;;;23.74;61.82;98660.88;5117190;28;20074;-94
2022/07/15 05:32:37;;;;;;;6.93;5.57;;;;;;;23.53;61.06;98655.41;5118556;28;20055;-94
2022/07/15 05:35:05;;;;;;;9.10;6.32;;;;;;;23.70;61.27;98661.25;5119256;28;20061;-93
2022/07/15 05:37:31;;;;;;;6.43;5.73;;;;;;;23.81;60.48;98677.56;5119993;28;20047;-93
2022/07/15 05:39:58;;;;;;;6.90;5.63;;;;;;;23.70;60.82;98672.13;5120105;28;20550;-95
2022/07/15 05:42:26;;;;;;;7.07;5.72;;;;;;;23.87;60.01;98658.03;5116758;28;20100;-95
2022/07/15 05:44:52;;;;;;;7.25;5.43;;;;;;;23.76;61.00;98668.94;5119945;28;20043;-96
2022/07/15 05:47:18;;;;;;;6.85;5.78;;;;;;;23.72;61.36;98676.44;5116869;28;20103;-95
2022/07/15 05:49:43;;;;;;;6.38;5.50;;;;;;;23.96;60.31;98649.16;5116331;28;20533;-94
2022/07/15 05:52:11;;;;;;;8.05;5.97;;;;;;;24.04;59.85;98691.09;5118324;28;20044;-95
2022/07/15 05:54:37;;;;;;;7.50;5.65;;;;;;;23.93;59.90;98662.97;5116932;28;20086;-94
2022/07/15 05:57:03;;;;;;;7.68;5.88;;;;;;;24.14;59.24;98664.88;5115980;28;20075;-94
2022/07/15 05:59:29;;;;;;;10.25;5.80;;;;;;;23.92;60.99;98674.84;5118174;28;20061;-95
2022/07/15 06:01:55;;;;;;;7.10;5.50;;;;;;;24.00;59.24;98647.00;5121634;28;20130;-95
2022/07/15 06:04:26;;;;;;;6.20;5.60;;;;;;;24.21;59.18;98666.06;5127256;28;20043;-95
2022/07/15 06:06:53;;;;;;;7.22;5.55;;;;;;;24.31;58.64;98657.97;5126799;28;20063;-95
2022/07/15 06:09:20;;;;;;;7.07;5.70;;;;;;;24.55;58.19;98645.03;5121829;28;20139;-96
2022/07/15 06:11:46;;;;;;;10.18;5.53;;;;;;;24.93;56.86;98668.00;5119930;28;20043;-95
2022/07/15 06:14:12;;;;;;;6.93;5.53;;;;;;;24.98;56.59;98651.28;5123722;28;20497;-95
2022/07/15 06:16:38;;;;;;;6.25;5.65;;;;;;;25.16;55.54;98660.53;5120208;28;20043;-95
2022/07/15 06:19:08;;;;;;;8.25;5.57;;;;;;;25.26;55.41;98651.59;5118607;28;20050;-95
2022/07/15 06:21:35;;;;;;;9.35;5.68;;;;;;;25.51;54.80;98651.09;5120263;28;20048;-95
2022/07/15 06:24:01;;;;;;;8.93;5.70;;;;;;;25.26;54.27;98663.31;5124906;28;20040;-95
2022/07/15 06:26:29;;;;;;;9.68;5.80;;;;;;;25.54;54.29;98666.28;5120336;28;20523;-95
2022/07/15 06:28:55;;;;;;;7.32;5.80;;;;;;;25.28;54.60;98663.19;5123357;28;20090;-96
2022/07/15 06:31:21;;;;;;;6.78;5.93;;;;;;;25.19;53.87;98667.56;5122742;28;20507;-96
2022/07/15 06:33:47;;;;;;;8.15;6.05;;;;;;;24.92;55.08;98660.00;5126789;28;20093;-95
2022/07/15 06:36:13;;;;;;;6.55;5.95;;;;;;;24.92;55.73;98677.19;5120612;28;20046;-96
2022/07/15 06:38:39;;;;;;;7.50;5.80;;;;;;;25.05;55.45;98663.38;5124002;28;20040;-96
2022/07/15 06:41:06;;;;;;;8.40;5.75;;;;;;;25.48;53.76;98667.72;5118425;28;20044;-96
2022/07/15 06:44:01;;;;;;;9.05;6.18;;;;;;;25.77;52.96;98669.66;5117268;28;20055;-94
2022/07/15 06:46:54;;;;;;;7.03;6.20;;;;;;;26.11;52.92;98686.50;5119118;28;20067;-96
2022/07/15 06:49:21;;;;;;;8.32;5.53;;;;;;;26.28;51.84;98662.25;5119795;28;20047;-95
2022/07/15 06:51:47;;;;;;;7.13;5.95;;;;;;;26.44;51.66;98668.00;5121051;28;20103;-96
2022/07/15 06:54:13;;;;;;;8.20;6.40;;;;;;;26.72;50.62;98673.56;5118783;28;20048;-96
2022/07/15 06:56:39;;;;;;;9.43;5.80;;;;;;;26.76;50.16;98664.09;5119705;28;20044;-94
2022/07/15 06:59:07;;;;;;;7.85;5.50;;;;;;;26.76;50.26;98659.53;5119372;28;20048;-96
2022/07/15 07:01:33;;;;;;;7.95;5.65;;;;;;;26.83;49.44;98657.06;5120877;28;20607;-96
2022/07/15 07:03:59;;;;;;;8.60;6.05;;;;;;;26.88;49.09;98654.75;5120496;28;20077;-96
2022/07/15 07:06:26;;;;;;;9.25;5.70;;;;;;;26.91;49.65;98651.69;5120744;28;20518;-96
2022/07/15 07:08:52;;;;;;;8.98;5.60;;;;;;;26.99;49.01;98654.56;5121908;28;20050;-96
2022/07/15 07:11:19;;;;;;;8.02;5.97;;;;;;;27.13;48.57;98650.50;5120508;28;20044;-96
2022/07/15 07:13:45;;;;;;;7.38;5.22;;;;;;;27.19;48.49;98644.41;5120954;27;20044;-96
2022/07/15 07:16:13;;;;;;;7.47;5.22;;;;;;;27.36;48.34;98652.88;5122251;28;20081;-96
2022/07/15 07:18:47;;;;;;;8.15;6.00;;;;;;;27.53;47.87;98651.19;5122618;28;20076;-95
2022/07/15 07:21:13;;;;;;;6.60;5.90;;;;;;;27.63;47.04;98647.41;5122916;28;20046;-96
2022/07/15 07:23:39;;;;;;;7.05;5.55;;;;;;;27.61;47.74;98640.38;5121764;28;20075;-96
2022/07/15 07:26:06;;;;;;;6.03;5.43;;;;;;;27.78;47.37;98650.47;5120773;28;20142;-96
2022/07/15 07:28:35;;;;;;;7.47;5.85;;;;;;;27.38;48.05;98645.38;5122147;28;20047;-96
2022/07/15 07:31:01;;;;;;;7.95;5.40;;;;;;;27.53;47.49;98648.47;5122050;28;20051;-95
2022/07/15 07:33:29;;;;;;;8.15;5.28;;;;;;;27.65;46.97;98641.75;5123158;28;20048;-96
2022/07/15 07:35:56;;;;;;;8.18;5.20;;;;;;;27.87;46.43;98648.72;5124678;28;20086;-95
2022/07/15 07:38:22;;;;;;;7.50;5.25;;;;;;;28.08;46.09;98650.28;5124253;28;20046;-96
2022/07/15 07:40:56;;;;;;;6.75;5.50;;;;;;;28.38;46.06;98668.16;5128242;28;20047;-96
2022/07/15 07:43:22;;;;;;;6.38;5.43;;;;;;;28.40;45.49;98642.38;5126275;28;20073;-95
2022/07/15 07:45:48;;;;;;;7.03;5.80;;;;;;;28.53;45.37;98635.69;5129069;28;20431;-95
2022/07/15 07:48:16;;;;;;;8.40;5.60;;;;;;;28.56;44.82;98636.22;5127296;28;20047;-96
2022/07/15 07:50:44;;;;;;;7.55;5.28;;;;;;;28.58;44.41;98625.97;5128195;28;20043;-95
2022/07/15 07:53:11;;;;;;;5.95;5.25;;;;;;;28.66;44.41;98633.38;5128498;28;20050;-94
2022/07/15 07:55:38;;;;;;;10.77;5.47;;;;;;;28.76;44.18;98623.19;5130256;28;20161;-96
2022/07/15 07:58:06;;;;;;;8.45;5.68;;;;;;;28.96;44.14;98625.72;5130239;28;20062;-96
2022/07/15 08:00:34;;;;;;;9.90;5.70;;;;;;;29.06;44.13;98624.56;5131891;28;20065;-96
2022/07/15 08:03:01;;;;;;;6.47;5.50;;;;;;;28.73;43.88;98642.66;5126483;28;20097;-96
2022/07/15 08:05:28;;;;;;;8.32;5.45;;;;;;;28.76;44.76;98611.41;5126486;28;20047;-95
2022/07/15 08:08:08;;;;;;;5.88;5.32;;;;;;;28.96;44.03;98609.28;5126512;28;20044;-96
2022/07/15 08:10:34;;;;;;;11.02;5.50;;;;;;;28.96;44.15;98618.34;5124978;28;20497;-93
2022/07/15 08:13:01;;;;;;;8.88;5.60;;;;;;;29.25;43.63;98612.53;5126311;28;20063;-94
2022/07/15 08:15:30;;;;;;;8.60;5.50;;;;;;;29.62;42.99;98641.41;5126206;28;20063;-95
2022/07/15 08:17:56;;;;;;;9.65;5.28;;;;;;;29.29;43.17;98624.00;5120782;28;20040;-95
2022/07/15 08:20:22;;;;;;;7.57;5.63;;;;;;;29.29;42.77;98615.78;5102156;28;20056;-95
2022/07/15 08:23:06;;;;;;;7.65;5.50;;;;;;;29.07;42.92;98619.94;5106442;28;20619;-96
2022/07/15 08:26:04;;;;;;;7.60;5.68;;;;;;;29.08;43.74;98605.22;5109093;28;20090;-96
2022/07/15 08:29:02;;;;;;;6.50;5.68;;;;;;;29.29;43.22;98635.81;5067601;28;20444;-96
2022/07/15 08:31:37;;;;;;;6.53;5.70;;;;;;;29.48;42.74;98618.28;5108577;28;20413;-96
2022/07/15 08:34:04;;;;;;;10.55;6.07;;;;;;;29.79;42.18;98604.00;5108780;28;20044;-96
2022/07/15 08:36:44;;;;;;;9.27;5.80;;;;;;;29.67;41.62;98610.81;5106441;28;20036;-96
2022/07/15 08:39:15;;;;;;;7.82;5.80;;;;;;;29.87;41.68;98609.50;5105046;28;20036;-96
2022/07/15 08:41:45;;;;;;;6.70;5.43;;;;;;;30.26;41.19;98625.31;5107220;28;20047;-95
2022/07/15 08:44:11;;;;;;;5.70;5.13;;;;;;;30.38;40.95;98609.38;5104119;28;20036;-96
2022/07/15 08:46:44;;;;;;;10.32;5.47;;;;;;;30.69;40.71;98625.16;5112107;28;20093;-94
2022/07/15 08:49:14;;;;;;;9.50;6.03;;;;;;;30.42;40.12;98621.72;5099661;28;20044;-94
2022/07/15 08:51:43;;;;;;;9.15;5.90;;;;;;;30.45;40.38;98610.44;5101240;28;20102;-94
2022/07/15 08:54:16;;;;;;;7.25;5.95;;;;;;;30.35;40.60;98603.41;5122023;28;20051;-95
2022/07/15 08:56:49;;;;;;;14.25;12.20;;;;;;;30.55;40.54;98614.88;5106613;28;20044;-95
2022/07/15 08:59:16;;;;;;;20.77;11.77;;;;;;;30.34;40.70;98627.25;5098451;28;20515;-96
2022/07/15 09:01:44;;;;;;;20.90;10.98;;;;;;;30.28;40.39;98626.03;5107809;28;20378;-95
2022/07/15 09:04:10;;;;;;;12.02;6.93;;;;;;;30.34;40.75;98618.13;5101112;28;20516;-96
2022/07/15 09:06:38;;;;;;;10.30;6.93;;;;;;;30.46;39.80;98606.66;5102537;28;20097;-95
2022/07/15 09:09:25;;;;;;;8.60;6.00;;;;;;;30.44;39.59;98600.47;5121420;28;20107;-95
2022/07/15 09:12:02;;;;;;;8.13;6.00;;;;;;;30.89;39.39;98606.44;5123840;28;20112;-95
2022/07/15 09:14:29;;;;;;;10.30;6.15;;;;;;;31.05;38.52;98592.66;5112767;28;20123;-96
2022/07/15 09:17:20;;;;;;;7.32;5.68;;;;;;;30.75;39.24;98594.25;5103745;28;20048;-96
2022/07/15 09:20:00;;;;;;;9.15;5.85;;;;;;;30.90;38.93;98611.78;5094627;28;20055;-94
2022/07/15 09:22:27;;;;;;;8.95;5.95;;;;;;;31.11;37.95;98599.34;5083796;28;20079;-95
2022/07/15 09:25:02;;;;;;;8.05;5.70;;;;;;;31.51;37.98;98602.97;5084208;28;20051;-96
2022/07/15 09:27:32;;;;;;;7.43;6.00;;;;;;;31.33;37.97;98612.28;5083473;28;20044;-95
2022/07/15 09:36:23;;;;;;;9.50;6.28;;;;;;;31.60;36.64;98614.78;5185546;27;20374;-94
2022/07/15 09:38:50;;;;;;;8.23;6.28;;;;;;;31.44;36.14;98582.75;5094668;27;20037;-95
2022/07/15 09:41:42;;;;;;;7.97;5.53;;;;;;;31.63;35.84;98584.19;5078179;28;20505;-96
2022/07/15 09:44:15;;;;;;;8.25;5.50;;;;;;;32.04;35.37;98594.97;5079139;28;20101;-96
2022/07/15 09:46:52;;;;;;;6.30;5.55;;;;;;;31.88;35.37;98579.38;5078304;28;20045;-96
2022/07/15 09:49:32;;;;;;;7.18;5.55;;;;;;;31.41;35.69;98592.16;5074910;28;20037;-95
2022/07/15 09:52:02;;;;;;;10.45;5.40;;;;;;;31.75;34.57;98585.50;5070098;27;20051;-95
2022/07/15 09:54:30;;;;;;;6.35;5.15;;;;;;;32.23;33.82;98588.09;5085523;27;20052;-96
2022/07/15 09:56:58;;;;;;;6.35;5.00;;;;;;;32.15;32.53;98575.25;5083592;28;20547;-96
2022/07/15 09:59:24;;;;;;;10.17;5.20;;;;;;;31.76;34.08;98569.84;5073125;28;20041;-96
2022/07/15 10:01:51;;;;;;;8.98;5.30;;;;;;;32.16;32.54;98578.84;5072818;27;20075;-96
2022/07/15 10:04:20;;;;;;;6.60;5.05;;;;;;;32.13;32.46;98549.81;5076881;28;20043;-96
2022/07/15 10:06:48;;;;;;;7.78;4.95;;;;;;;31.85;31.82;98574.25;5099459;27;20042;-95
2022/07/15 10:09:20;;;;;;;5.70;4.13;;;;;;;32.16;30.63;98546.69;5121223;27;20028;-92
2022/07/15 10:11:51;;;;;;;6.05;4.60;;;;;;;32.55;30.28;98564.94;5092760;27;20031;-95
2022/07/15 10:14:52;;;;;;;6.43;4.80;;;;;;;32.82;29.68;98549.69;5083400;28;20100;-92
2022/07/15 10:17:51;;;;;;;6.32;4.68;;;;;;;33.08;29.02;98556.66;5109840;27;20045;-93
2022/07/15 10:20:40;;;;;;;6.78;4.60;;;;;;;33.21;27.90;98548.56;5036656;28;20043;-95
2022/07/15 10:23:18;;;;;;;4.78;4.10;;;;;;;33.36;28.13;98540.28;5043751;28;20052;-94
2022/07/15 10:26:00;;;;;;;6.93;4.10;;;;;;;33.48;27.54;98549.72;5031419;28;20485;-92
2022/07/15 10:28:40;;;;;;;4.70;4.20;;;;;;;33.53;27.58;98536.25;5036916;28;20506;-95
2022/07/15 10:31:21;;;;;;;4.72;4.15;;;;;;;33.67;27.45;98553.81;4999468;28;20050;-95
2022/07/15 10:34:29;;;;;;;4.88;3.83;;;;;;;33.52;26.07;98547.44;5027326;28;20128;-95
2022/07/15 10:37:13;;;;;;;4.38;3.90;;;;;;;33.48;26.63;98543.38;5054449;28;20083;-95
2022/07/15 10:39:58;;;;;;;4.50;3.83;;;;;;;33.46;25.79;98531.69;5012202;28;20047;-93
2022/07/15 10:42:26;;;;;;;4.45;4.05;;;;;;;33.63;25.67;98524.06;5036841;28;20058;-92
2022/07/15 10:45:07;;;;;;;5.03;4.10;;;;;;;33.80;26.18;98525.53;5040371;28;20505;-94
2022/07/15 10:47:33;;;;;;;4.60;3.80;;;;;;;33.43;24.87;98521.91;4960824;28;20050;-92
2022/07/15 10:49:59;;;;;;;5.63;3.80;;;;;;;33.68;24.17;98538.09;5008880;28;20045;-93
2022/07/15 10:52:27;;;;;;;4.22;3.78;;;;;;;33.84;23.26;98531.50;5007110;28;20039;-95
2022/07/15 10:55:03;;;;;;;5.63;4.25;;;;;;;33.90;22.86;98526.06;5040780;28;20102;-94
2022/07/15 10:57:54;;;;;;;4.85;3.90;;;;;;;33.94;23.60;98513.56;5065111;27;20045;-95
2022/07/15 11:00:31;;;;;;;6.82;3.70;;;;;;;34.01;23.48;98496.25;5108580;27;20393;-95
2022/07/15 11:03:06;;;;;;;4.97;4.05;;;;;;;33.97;22.35;98515.09;5128247;27;20046;-95
2022/07/15 11:05:34;;;;;;;6.47;4.43;;;;;;;33.76;22.39;98489.19;5073957;27;20142;-95
2022/07/15 11:08:00;;;;;;;6.20;4.50;;;;;;;33.91;22.43;98493.78;5063062;28;20045;-95
2022/07/15 11:10:27;;;;;;;4.85;3.80;;;;;;;33.68;21.89;98502.25;5061380;28;20632;-96
2022/07/15 11:13:05;;;;;;;4.88;4.20;;;;;;;33.63;22.05;98490.97;5086209;27;20042;-95
2022/07/15 11:15:32;;;;;;;5.53;4.30;;;;;;;33.63;22.19;98490.97;5187077;27;20058;-94
2022/07/15 11:17:58;;;;;;;5.20;4.50;;;;;;;33.91;22.61;98488.28;5096939;27;20092;-94
2022/07/15 11:20:28;;;;;;;5.60;4.47;;;;;;;34.12;22.67;98484.69;5125916;27;20038;-92
2022/07/15 11:22:56;;;;;;;6.22;4.40;;;;;;;34.12;21.23;98490.19;5101048;27;20518;-94
2022/07/15 11:25:24;;;;;;;7.88;4.78;;;;;;;34.10;21.47;98476.56;5076397;27;20068;-94
2022/07/15 11:28:00;;;;;;;6.32;4.70;;;;;;;34.27;21.43;98495.63;5060436;28;20049;-96
2022/07/15 11:30:29;;;;;;;6.07;5.35;;;;;;;34.48;19.05;98494.69;5090628;27;20047;-95
2022/07/15 11:32:57;;;;;;;9.07;5.35;;;;;;;34.51;20.05;98473.06;5079009;27;20044;-96
2022/07/15 11:35:23;;;;;;;;;;;;;;;34.74;20.95;98483.88;5074581;27;20453;-95
2022/07/15 11:37:57;;;;;;;6.13;5.03;;;;;;;34.63;19.73;98481.66;5098353;27;19920;-96
2022/07/15 11:46:25;;;;;;;7.13;5.57;;;;;;;34.50;18.74;98448.41;5117252;27;20377;-93
2022/07/15 11:49:10;;;;;;;;;;;;;;;34.73;18.43;98475.78;5117993;28;20060;-96
2022/07/15 11:51:36;;;;;;;8.38;5.45;;;;;;;34.64;18.28;98455.78;5116283;28;19956;-94
2022/07/15 11:54:03;;;;;;;6.85;5.70;;;;;;;34.65;18.51;98449.16;5113295;28;20043;-96
2022/07/15 11:56:28;;;;;;;6.30;5.45;;;;;;;34.84;19.04;98447.56;5116383;28;20039;-96